createdAt,value
2023-03-11T00:00:23.841Z,93517.00
2023-03-11T00:01:23.853Z,93512.00
2023-03-11T00:02:23.945Z,93517.00
2023-03-11T00:03:23.869Z,93525.00
2023-03-11T00:04:23.880Z,93519.00
2023-03-11T00:05:23.914Z,93519.00
2023-03-11T00:06:23.881Z,93521.00
2023-03-11T00:07:23.890Z,93514.00
2023-03-11T00:08:23.885Z,93512.00
2023-03-11T00:09:23.870Z,93508.00
2023-03-11T00:10:23.885Z,93504.00
2023-03-11T00:11:23.907Z,93506.00
2023-03-11T00:12:23.918Z,93512.00
2023-03-11T00:13:23.915Z,93516.00
2023-03-11T00:14:23.924Z,93512.00
2023-03-11T00:15:23.916Z,93519.00
2023-03-11T00:16:23.914Z,93519.00
2023-03-11T00:17:23.947Z,93519.00
2023-03-11T00:18:23.959Z,93527.00
2023-03-11T00:19:23.946Z,93531.00
2023-03-11T00:20:23.947Z,93521.00
2023-03-11T00:21:23.917Z,93521.00
2023-03-11T00:22:23.922Z,93521.00
2023-03-11T00:23:23.920Z,93527.00
2023-03-11T00:24:23.937Z,93531.00
2023-03-11T00:25:23.968Z,93531.00
2023-03-11T00:26:23.944Z,93531.00
2023-03-11T00:27:23.945Z,93535.00
2023-03-11T00:28:23.936Z,93539.00
2023-03-11T00:29:23.915Z,93543.00
2023-03-11T00:30:23.938Z,93539.00
2023-03-11T00:31:23.915Z,93535.00
2023-03-11T00:32:23.988Z,93531.00
2023-03-11T00:33:23.989Z,93529.00
2023-03-11T00:34:23.958Z,93533.00
2023-03-11T00:35:23.965Z,93537.00
2023-03-11T00:36:23.922Z,93537.00
2023-03-11T00:37:23.938Z,93537.00
2023-03-11T00:38:23.977Z,93541.00
2023-03-11T00:39:23.941Z,93545.00
2023-03-11T00:40:23.932Z,93551.00
2023-03-11T00:41:23.928Z,93549.00
2023-03-11T00:42:23.930Z,93553.00
2023-03-11T00:43:23.908Z,93563.00
2023-03-11T00:44:24.031Z,93564.00
2023-03-11T00:45:23.921Z,93566.00
2023-03-11T00:46:23.925Z,93568.00
2023-03-11T00:47:23.914Z,93568.00
2023-03-11T00:48:23.905Z,93566.00
2023-03-11T00:49:23.900Z,93566.00
2023-03-11T00:50:23.911Z,93564.00
2023-03-11T00:51:23.873Z,93564.00
2023-03-11T00:52:23.888Z,93566.00
2023-03-11T00:53:23.906Z,93568.00
2023-03-11T00:54:23.887Z,93568.00
2023-03-11T00:55:23.879Z,93566.00
2023-03-11T00:56:23.865Z,93566.00
2023-03-11T00:57:23.860Z,93564.00
2023-03-11T00:58:23.842Z,93561.00
2023-03-11T00:59:23.830Z,93551.00
2023-03-11T01:00:23.837Z,93551.00
2023-03-11T01:01:23.836Z,93556.00
2023-03-11T01:02:23.849Z,93563.00
2023-03-11T01:03:23.838Z,93561.00
2023-03-11T01:04:23.916Z,93551.00
2023-03-11T01:05:23.828Z,93547.00
2023-03-11T01:06:26.112Z,93545.00
2023-03-11T01:07:23.835Z,93549.00
2023-03-11T01:08:23.830Z,93555.00
2023-03-11T01:09:23.832Z,93563.00
2023-03-11T01:10:23.813Z,93561.00
2023-03-11T01:11:23.794Z,93553.00
2023-03-11T01:12:23.810Z,93555.00
2023-03-11T01:13:23.813Z,93555.00
2023-03-11T01:14:23.798Z,93551.00
2023-03-11T01:15:23.753Z,93553.00
2023-03-11T01:16:23.795Z,93556.00
2023-03-11T01:17:23.796Z,93555.00
2023-03-11T01:18:23.756Z,93555.00
2023-03-11T01:19:23.750Z,93555.00
2023-03-11T01:20:23.726Z,93547.00
2023-03-11T01:21:23.771Z,93541.00
2023-03-11T01:22:23.741Z,93541.00
2023-03-11T01:23:23.709Z,93549.00
2023-03-11T01:24:23.700Z,93553.00
2023-03-11T01:25:23.704Z,93558.00
2023-03-11T01:26:23.699Z,93561.00
2023-03-11T01:27:23.702Z,93553.00
2023-03-11T01:28:23.695Z,93553.00
2023-03-11T01:29:23.682Z,93549.00
2023-03-11T01:30:23.677Z,93543.00
2023-03-11T01:31:23.725Z,93539.00
2023-03-11T01:32:23.663Z,93541.00
2023-03-11T01:33:23.637Z,93541.00
2023-03-11T01:34:23.654Z,93541.00
2023-03-11T01:35:23.649Z,93541.00
2023-03-11T01:36:23.603Z,93543.00
2023-03-11T01:37:23.595Z,93547.00
2023-03-11T01:38:23.622Z,93553.00
2023-03-11T01:39:23.581Z,93553.00
2023-03-11T01:40:23.591Z,93547.00
2023-03-11T01:41:23.591Z,93547.00
2023-03-11T01:42:23.558Z,93547.00
2023-03-11T01:43:23.537Z,93543.00
2023-03-11T01:44:23.554Z,93541.00
2023-03-11T01:45:23.545Z,93545.00
2023-03-11T01:46:23.587Z,93543.00
2023-03-11T01:47:23.523Z,93541.00
2023-03-11T01:48:23.552Z,93541.00
2023-03-11T01:49:23.530Z,93541.00
2023-03-11T01:50:23.508Z,93543.00
2023-03-11T01:51:23.521Z,93551.00
2023-03-11T01:52:23.535Z,93555.00
2023-03-11T01:53:23.465Z,93553.00
2023-03-11T01:54:23.499Z,93549.00
2023-03-11T01:55:23.450Z,93545.00
2023-03-11T01:56:23.482Z,93545.00
2023-03-11T01:57:23.459Z,93539.00
2023-03-11T01:58:23.456Z,93535.00
2023-03-11T01:59:23.440Z,93541.00
2023-03-11T02:00:23.453Z,93541.00
2023-03-11T02:01:23.439Z,93539.00
2023-03-11T02:02:23.390Z,93541.00
2023-03-11T02:03:23.438Z,93543.00
2023-03-11T02:04:23.396Z,93543.00
2023-03-11T02:05:23.395Z,93547.00
2023-03-11T02:06:23.373Z,93549.00
2023-03-11T02:07:23.382Z,93553.00
2023-03-11T02:08:23.356Z,93555.00
2023-03-11T02:09:23.347Z,93551.00
2023-03-11T02:10:23.364Z,93547.00
2023-03-11T02:11:23.346Z,93545.00
2023-03-11T02:12:23.334Z,93541.00
2023-03-11T02:13:23.328Z,93543.00
2023-03-11T02:14:23.319Z,93545.00
2023-03-11T02:15:23.329Z,93545.00
2023-03-11T02:16:23.392Z,93543.00
2023-03-11T02:17:23.292Z,93537.00
2023-03-11T02:18:23.290Z,93535.00
2023-03-11T02:19:23.281Z,93537.00
2023-03-11T02:20:23.282Z,93543.00
2023-03-11T02:21:23.298Z,93549.00
2023-03-11T02:22:23.259Z,93551.00
2023-03-11T02:23:23.275Z,93551.00
2023-03-11T02:24:23.281Z,93553.00
2023-03-11T02:25:23.260Z,93558.00
2023-03-11T02:26:23.250Z,93561.00
2023-03-11T02:27:23.263Z,93558.00
2023-03-11T02:28:23.221Z,93561.00
2023-03-11T02:29:23.232Z,93558.00
2023-03-11T02:30:23.240Z,93556.00
2023-03-11T02:31:23.272Z,93561.00
2023-03-11T02:32:23.247Z,93563.00
2023-03-11T02:33:23.211Z,93566.00
2023-03-11T02:34:23.210Z,93564.00
2023-03-11T02:35:23.196Z,93563.00
2023-03-11T02:36:23.208Z,93556.00
2023-03-11T02:37:23.182Z,93553.00
2023-03-11T02:38:23.165Z,93555.00
2023-03-11T02:39:23.156Z,93555.00
2023-03-11T02:40:23.166Z,93558.00
2023-03-11T02:41:23.160Z,93563.00
2023-03-11T02:42:23.147Z,93561.00
2023-03-11T02:43:23.117Z,93561.00
2023-03-11T02:44:23.124Z,93558.00
2023-03-11T02:45:23.121Z,93561.00
2023-03-11T02:46:23.154Z,93563.00
2023-03-11T02:47:23.109Z,93556.00
2023-03-11T02:48:23.086Z,93555.00
2023-03-11T02:49:23.084Z,93555.00
2023-03-11T02:50:23.077Z,93564.00
2023-03-11T02:51:23.089Z,93576.00
2023-03-11T02:52:23.055Z,93582.00
2023-03-11T02:53:23.057Z,93584.00
2023-03-11T02:54:23.058Z,93582.00
2023-03-11T02:55:23.033Z,93576.00
2023-03-11T02:56:23.030Z,93570.00
2023-03-11T02:57:23.055Z,93578.00
2023-03-11T02:58:23.049Z,93578.00
2023-03-11T02:59:23.033Z,93586.00
2023-03-11T03:00:22.995Z,93594.00
2023-03-11T03:01:23.023Z,93596.00
2023-03-11T03:02:23.019Z,93596.00
2023-03-11T03:03:23.000Z,93603.00
2023-03-11T03:04:23.043Z,93605.00
2023-03-11T03:05:22.991Z,93608.00
2023-03-11T03:06:22.986Z,93611.00
2023-03-11T03:07:22.956Z,93615.00
2023-03-11T03:08:22.966Z,93611.00
2023-03-11T03:09:22.917Z,93603.00
2023-03-11T03:10:22.944Z,93598.00
2023-03-11T03:11:22.920Z,93596.00
2023-03-11T03:12:22.930Z,93602.00
2023-03-11T03:13:22.914Z,93608.00
2023-03-11T03:14:22.961Z,93610.00
2023-03-11T03:15:22.942Z,93608.00
2023-03-11T03:18:22.945Z,93608.00
2023-03-11T03:19:22.958Z,93608.00
2023-03-11T03:20:22.944Z,93610.00
2023-03-11T03:21:22.922Z,93610.00
2023-03-11T03:22:22.959Z,93617.00
2023-03-11T03:23:22.934Z,93613.00
2023-03-11T03:24:22.904Z,93625.00
2023-03-11T03:25:22.906Z,93629.00
2023-03-11T03:26:22.933Z,93635.00
2023-03-11T03:27:22.930Z,93629.00
2023-03-11T03:28:22.900Z,93629.00
2023-03-11T03:29:22.875Z,93631.00
2023-03-11T03:30:22.873Z,93629.00
2023-03-11T03:31:22.910Z,93633.00
2023-03-11T03:32:22.897Z,93637.00
2023-03-11T03:33:22.931Z,93633.00
2023-03-11T03:34:22.875Z,93637.00
2023-03-11T03:35:22.849Z,93633.00
2023-03-11T03:36:22.841Z,93631.00
2023-03-11T03:37:22.852Z,93633.00
2023-03-11T03:38:22.878Z,93639.00
2023-03-11T03:39:22.856Z,93645.00
2023-03-11T03:40:22.864Z,93637.00
2023-03-11T03:41:22.826Z,93633.00
2023-03-11T03:42:22.880Z,93621.00
2023-03-11T03:43:22.838Z,93617.00
2023-03-11T03:44:22.845Z,93611.00
2023-03-11T03:45:22.844Z,93610.00
2023-03-11T03:46:22.892Z,93613.00
2023-03-11T03:47:22.867Z,93619.00
2023-03-11T03:48:22.846Z,93627.00
2023-03-11T03:49:22.858Z,93633.00
2023-03-11T03:50:22.892Z,93643.00
2023-03-11T03:51:22.895Z,93645.00
2023-03-11T03:52:22.901Z,93656.00
2023-03-11T03:53:22.861Z,93662.00
2023-03-11T03:54:22.854Z,93670.00
2023-03-11T03:55:22.877Z,93674.00
2023-03-11T03:56:22.857Z,93672.00
2023-03-11T03:57:22.859Z,93666.00
2023-03-11T03:58:22.904Z,93668.00
2023-03-11T03:59:22.873Z,93670.00
2023-03-11T04:00:22.910Z,93674.00
2023-03-11T04:01:22.872Z,93682.00
2023-03-11T04:02:23.008Z,93692.00
2023-03-11T04:03:22.989Z,93699.00
2023-03-11T04:04:22.944Z,93697.00
2023-03-11T04:05:22.893Z,93701.00
2023-03-11T04:06:22.949Z,93703.00
2023-03-11T04:07:22.996Z,93695.00
2023-03-11T04:08:22.992Z,93690.00
2023-03-11T04:09:23.022Z,93692.00
2023-03-11T04:10:23.041Z,93692.00
2023-03-11T04:11:23.035Z,93695.00
2023-03-11T04:12:23.066Z,93690.00
2023-03-11T04:13:23.083Z,93692.00
2023-03-11T04:14:23.115Z,93692.00
2023-03-11T04:15:23.076Z,93686.00
2023-03-11T04:16:23.131Z,93688.00
2023-03-11T04:17:23.126Z,93680.00
2023-03-11T04:18:23.139Z,93672.00
2023-03-11T04:19:23.163Z,93674.00
2023-03-11T04:20:23.159Z,93670.00
2023-03-11T04:21:23.176Z,93668.00
2023-03-11T04:22:23.247Z,93664.00
2023-03-11T04:23:23.229Z,93664.00
2023-03-11T04:24:23.239Z,93668.00
2023-03-11T04:25:23.288Z,93672.00
2023-03-11T04:26:23.269Z,93678.00
2023-03-11T04:27:23.290Z,93682.00
2023-03-11T04:28:23.338Z,93690.00
2023-03-11T04:29:23.346Z,93690.00
2023-03-11T04:30:23.365Z,93692.00
2023-03-11T04:31:23.441Z,93680.00
2023-03-11T04:32:23.439Z,93688.00
2023-03-11T04:33:23.433Z,93678.00
2023-03-11T04:34:23.490Z,93678.00
2023-03-11T04:35:23.578Z,93676.00
2023-03-11T04:36:23.511Z,93676.00
2023-03-11T04:37:23.568Z,93680.00
2023-03-11T04:38:23.599Z,93690.00
2023-03-11T04:39:23.594Z,93686.00
2023-03-11T04:40:23.638Z,93690.00
2023-03-11T04:41:23.681Z,93686.00
2023-03-11T04:42:23.687Z,93682.00
2023-03-11T04:43:23.692Z,93684.00
2023-03-11T04:44:23.738Z,93686.00
2023-03-11T04:45:23.765Z,93690.00
2023-03-11T04:46:23.857Z,93692.00
2023-03-11T04:47:23.791Z,93692.00
2023-03-11T04:48:23.848Z,93688.00
2023-03-11T04:49:23.842Z,93688.00
2023-03-11T04:50:23.860Z,93690.00
2023-03-11T04:51:23.913Z,93694.00
2023-03-11T04:52:23.948Z,93694.00
2023-03-11T04:53:23.959Z,93694.00
2023-03-11T04:54:23.948Z,93695.00
2023-03-11T04:55:24.103Z,93703.00
2023-03-11T04:56:24.012Z,93707.00
2023-03-11T04:57:24.030Z,93707.00
2023-03-11T04:58:24.050Z,93703.00
2023-03-11T04:59:24.121Z,93701.00
2023-03-11T05:00:24.136Z,93703.00
2023-03-11T05:01:24.187Z,93701.00
2023-03-11T05:02:24.180Z,93703.00
2023-03-11T05:03:24.214Z,93703.00
2023-03-11T05:04:24.309Z,93701.00
2023-03-11T05:05:24.289Z,93699.00
2023-03-11T05:06:24.328Z,93699.00
2023-03-11T05:07:24.391Z,93703.00
2023-03-11T05:08:24.383Z,93705.00
2023-03-11T05:09:24.436Z,93707.00
2023-03-11T05:10:24.448Z,93707.00
2023-03-11T05:11:24.514Z,93711.00
2023-03-11T05:12:24.484Z,93713.00
2023-03-11T05:13:24.517Z,93711.00
2023-03-11T05:14:24.560Z,93713.00
2023-03-11T05:15:24.608Z,93715.00
2023-03-11T05:16:24.689Z,93717.00
2023-03-11T05:17:24.705Z,93721.00
2023-03-11T05:18:24.726Z,93725.00
2023-03-11T05:19:24.793Z,93729.00
2023-03-11T05:20:24.809Z,93729.00
2023-03-11T05:21:24.891Z,93731.00
2023-03-11T05:22:24.938Z,93729.00
2023-03-11T05:23:24.949Z,93733.00
2023-03-11T05:24:25.043Z,93731.00
2023-03-11T05:25:25.034Z,93736.00
2023-03-11T05:26:25.122Z,93734.00
2023-03-11T05:27:25.159Z,93731.00
2023-03-11T05:28:25.145Z,93736.00
2023-03-11T05:29:25.212Z,93742.00
2023-03-11T05:30:25.256Z,93742.00
2023-03-11T05:31:25.318Z,93752.00
2023-03-11T05:32:25.353Z,93752.00
2023-03-11T05:33:25.371Z,93756.00
2023-03-11T05:34:25.390Z,93756.00
2023-03-11T05:35:25.453Z,93752.00
2023-03-11T05:36:25.476Z,93754.00
2023-03-11T05:37:25.546Z,93758.00
2023-03-11T05:38:25.616Z,93758.00
2023-03-11T05:39:25.613Z,93756.00
2023-03-11T05:40:25.670Z,93758.00
2023-03-11T05:41:25.745Z,93762.00
2023-03-11T05:42:25.781Z,93762.00
2023-03-11T05:43:25.752Z,93764.00
2023-03-11T05:44:25.836Z,93758.00
2023-03-11T05:45:25.846Z,93762.00
2023-03-11T05:46:25.952Z,93764.00
2023-03-11T05:47:25.939Z,93766.00
2023-03-11T05:48:25.995Z,93770.00
2023-03-11T05:49:26.000Z,93770.00
2023-03-11T05:50:26.056Z,93770.00
2023-03-11T05:51:26.084Z,93766.00
2023-03-11T05:52:26.155Z,93768.00
2023-03-11T05:53:26.211Z,93768.00
2023-03-11T05:54:26.217Z,93768.00
2023-03-11T05:55:26.289Z,93766.00
2023-03-11T05:56:26.278Z,93768.00
2023-03-11T05:57:26.327Z,93770.00
2023-03-11T05:58:26.410Z,93772.00
2023-03-11T06:00:26.455Z,93774.00
2023-03-11T06:01:26.523Z,93774.00
2023-03-11T06:02:26.573Z,93772.00
2023-03-11T06:03:26.641Z,93772.00
2023-03-11T06:04:26.786Z,93772.00
2023-03-11T06:05:26.817Z,93781.00
2023-03-11T06:06:26.775Z,93780.00
2023-03-11T06:08:26.869Z,93783.00
2023-03-11T06:09:26.874Z,93787.00
2023-03-11T06:10:26.973Z,93787.00
2023-03-11T06:11:26.976Z,93789.00
2023-03-11T06:12:27.022Z,93787.00
2023-03-11T06:13:27.042Z,93789.00
2023-03-11T06:14:27.098Z,93787.00
2023-03-11T06:15:27.111Z,93785.00
2023-03-11T06:16:27.245Z,93785.00
2023-03-11T06:17:29.324Z,93785.00
2023-03-11T06:18:27.219Z,93787.00
2023-03-11T06:19:27.233Z,93789.00
2023-03-11T06:20:27.204Z,93793.00
2023-03-11T06:21:27.206Z,93793.00
2023-03-11T06:22:27.185Z,93793.00
2023-03-11T06:23:27.182Z,93791.00
2023-03-11T06:24:27.151Z,93793.00
2023-03-11T06:25:27.185Z,93789.00
2023-03-11T06:26:27.142Z,93787.00
2023-03-11T06:27:27.137Z,93787.00
2023-03-11T06:28:27.153Z,93791.00
2023-03-11T06:29:27.137Z,93793.00
2023-03-11T06:30:27.134Z,93797.00
2023-03-11T06:31:27.241Z,93799.00
2023-03-11T06:32:27.181Z,93801.00
2023-03-11T06:33:27.119Z,93801.00
2023-03-11T06:34:27.081Z,93801.00
2023-03-11T06:35:27.105Z,93799.00
2023-03-11T06:36:27.108Z,93805.00
2023-03-11T06:37:27.085Z,93807.00
2023-03-11T06:38:27.093Z,93807.00
2023-03-11T06:39:27.073Z,93807.00
2023-03-11T06:40:27.046Z,93805.00
2023-03-11T06:41:27.030Z,93809.00
2023-03-11T06:42:27.047Z,93813.00
2023-03-11T06:43:27.829Z,93811.00
2023-03-11T06:44:27.045Z,93813.00
2023-03-11T06:45:27.039Z,93813.00
2023-03-11T06:46:26.999Z,93815.00
2023-03-11T06:47:27.065Z,93815.00
2023-03-11T06:48:26.989Z,93817.00
2023-03-11T06:49:26.992Z,93823.00
2023-03-11T06:50:27.002Z,93823.00
2023-03-11T06:51:27.045Z,93825.00
2023-03-11T06:52:26.995Z,93828.00
2023-03-11T06:53:27.074Z,93828.00
2023-03-11T06:54:26.992Z,93827.00
2023-03-11T06:55:27.032Z,93827.00
2023-03-11T06:56:27.075Z,93827.00
2023-03-11T06:57:27.121Z,93832.00
2023-03-11T06:58:27.166Z,93834.00
2023-03-11T06:59:27.251Z,93838.00
2023-03-11T07:00:27.300Z,93838.00
2023-03-11T07:01:27.454Z,93840.00
2023-03-11T07:02:27.433Z,93836.00
2023-03-11T07:03:27.462Z,93836.00
2023-03-11T07:04:27.607Z,93840.00
2023-03-11T07:05:27.589Z,93842.00
2023-03-11T07:06:27.654Z,93844.00
2023-03-11T07:07:27.709Z,93846.00
2023-03-11T07:08:27.790Z,93846.00
2023-03-11T07:09:27.839Z,93844.00
2023-03-11T07:10:27.898Z,93844.00
2023-03-11T07:11:27.986Z,93846.00
2023-03-11T07:12:28.032Z,93846.00
2023-03-11T07:13:28.072Z,93848.00
2023-03-11T07:14:28.153Z,93850.00
2023-03-11T07:15:28.193Z,93852.00
2023-03-11T07:16:28.318Z,93854.00
2023-03-11T07:17:28.403Z,93854.00
2023-03-11T07:18:28.422Z,93856.00
2023-03-11T07:19:28.432Z,93856.00
2023-03-11T07:20:28.579Z,93852.00
2023-03-11T07:21:28.581Z,93852.00
2023-03-11T07:22:28.623Z,93858.00
2023-03-11T07:23:28.696Z,93862.00
2023-03-11T07:24:28.769Z,93866.00
2023-03-11T07:25:28.810Z,93868.00
2023-03-11T07:26:28.910Z,93868.00
2023-03-11T07:27:28.945Z,93868.00
2023-03-11T07:28:29.052Z,93870.00
2023-03-11T07:29:29.096Z,93872.00
2023-03-11T07:30:29.150Z,93872.00
2023-03-11T07:31:29.227Z,93875.00
2023-03-11T07:32:29.269Z,93872.00
2023-03-11T07:33:29.315Z,93875.00
2023-03-11T07:34:29.376Z,93875.00
2023-03-11T07:35:29.502Z,93877.00
2023-03-11T07:36:29.508Z,93877.00
2023-03-11T07:37:29.585Z,93877.00
2023-03-11T07:38:29.626Z,93881.00
2023-03-11T07:39:29.678Z,93887.00
2023-03-11T07:40:29.789Z,93895.00
2023-03-11T07:41:30.352Z,93901.00
2023-03-11T07:42:29.852Z,93901.00
2023-03-11T07:43:29.897Z,93905.00
2023-03-11T07:44:29.968Z,93901.00
2023-03-11T07:45:30.032Z,93903.00
2023-03-11T07:46:30.165Z,93905.00
2023-03-11T07:47:30.118Z,93905.00
2023-03-11T07:48:30.164Z,93905.00
2023-03-11T07:50:30.395Z,93914.00
2023-03-11T07:51:30.338Z,93914.00
2023-03-11T07:52:30.427Z,93914.00
2023-03-11T07:53:30.458Z,93912.00
2023-03-11T07:54:30.511Z,93905.00
2023-03-11T07:55:30.588Z,93905.00
2023-03-11T07:56:30.650Z,93914.00
2023-03-11T07:58:30.752Z,93920.00
2023-03-11T08:13:31.595Z,93940.00
2023-03-11T08:36:32.870Z,93956.00
2023-03-11T08:37:32.914Z,93956.00
2023-03-11T08:38:33.014Z,93956.00
2023-03-11T08:39:33.026Z,93959.00
2023-03-11T08:40:33.103Z,93959.00
2023-03-11T08:41:33.155Z,93959.00
2023-03-11T08:42:33.224Z,93963.00
2023-03-11T08:43:33.237Z,93959.00
2023-03-11T08:44:33.300Z,93958.00
2023-03-11T08:45:33.378Z,93958.00
2023-03-11T08:46:33.413Z,93958.00
2023-03-11T08:47:33.496Z,93956.00
2023-03-11T08:48:33.508Z,93954.00
2023-03-11T08:49:33.582Z,93958.00
2023-03-11T08:50:44.150Z,93952.00
2023-03-11T08:51:34.608Z,93952.00
2023-03-11T08:52:33.584Z,93952.00
2023-03-11T08:53:33.593Z,93952.00
2023-03-11T08:54:33.605Z,93956.00
2023-03-11T08:55:33.592Z,93954.00
2023-03-11T08:56:33.592Z,93950.00
2023-03-11T08:57:33.592Z,93950.00
2023-03-11T08:58:33.570Z,93944.00
2023-03-11T08:59:33.596Z,93944.00
2023-03-11T09:00:33.625Z,93942.00
2023-03-11T09:01:33.713Z,93944.00
2023-03-11T09:02:33.768Z,93944.00
2023-03-11T09:03:33.758Z,93948.00
2023-03-11T09:04:33.855Z,93954.00
2023-03-11T09:05:33.949Z,93956.00
2023-03-11T09:06:33.953Z,93956.00
2023-03-11T09:07:34.026Z,93956.00
2023-03-11T09:08:34.036Z,93956.00
2023-03-11T09:09:34.136Z,93956.00
2023-03-11T09:10:34.146Z,93958.00
2023-03-11T09:11:34.207Z,93958.00
2023-03-11T09:12:34.283Z,93961.00
2023-03-11T09:13:34.353Z,93959.00
2023-03-11T09:14:34.415Z,93956.00
2023-03-11T09:15:34.474Z,93956.00
2023-03-11T09:16:34.578Z,93950.00
2023-03-11T09:17:34.619Z,93946.00
2023-03-11T09:18:34.657Z,93948.00
2023-03-11T09:19:34.713Z,93950.00
2023-03-11T09:20:34.768Z,93944.00
2023-03-11T09:21:34.816Z,93950.00
2023-03-11T09:22:34.895Z,93946.00
2023-03-11T09:23:34.961Z,93948.00
2023-03-11T09:24:35.039Z,93952.00
2023-03-11T09:25:35.087Z,93952.00
2023-03-11T09:26:35.147Z,93952.00
2023-03-11T09:27:35.190Z,93954.00
2023-03-11T09:42:36.131Z,93952.00
2023-03-11T09:52:36.698Z,93961.00
2023-03-11T10:12:37.900Z,93973.00
2023-03-11T10:13:37.937Z,93971.00
2023-03-11T10:14:37.985Z,93965.00
2023-03-11T10:15:39.540Z,93969.00
2023-03-11T10:16:38.145Z,93973.00
2023-03-11T10:17:38.202Z,93975.00
2023-03-11T10:18:38.215Z,93973.00
2023-03-11T10:19:38.284Z,93981.00
2023-03-11T10:20:38.359Z,93981.00
2023-03-11T10:21:38.407Z,93981.00
2023-03-11T10:22:38.460Z,93983.00
2023-03-11T10:23:38.505Z,93981.00
2023-03-11T10:24:38.569Z,93975.00
2023-03-11T10:26:38.664Z,93973.00
2023-03-11T10:27:40.402Z,93973.00
2023-03-11T12:40:42.857Z,93889.00
2023-03-11T12:41:42.911Z,93887.00
2023-03-11T12:42:42.975Z,93885.00
2023-03-11T12:43:43.064Z,93879.00
2023-03-11T12:44:43.122Z,93879.00
2023-03-11T12:45:43.179Z,93879.00
2023-03-11T12:46:43.229Z,93877.00
2023-03-11T12:47:43.278Z,93877.00
2023-03-11T12:48:43.333Z,93877.00
2023-03-11T12:49:43.401Z,93881.00
2023-03-11T12:50:43.463Z,93870.00
2023-03-11T12:51:43.578Z,93877.00
2023-03-11T12:52:43.588Z,93879.00
2023-03-11T12:53:43.668Z,93872.00
2023-03-11T12:54:43.750Z,93872.00
2023-03-11T12:55:43.798Z,93877.00
2023-03-11T12:56:43.885Z,93875.00
2023-03-11T12:57:43.897Z,93872.00
2023-03-11T12:58:43.975Z,93872.00
2023-03-11T12:59:44.043Z,93870.00
2023-03-11T13:00:44.088Z,93864.00
2023-03-11T13:01:44.205Z,93868.00
2023-03-11T13:02:44.253Z,93866.00
2023-03-11T13:03:45.927Z,93860.00
2023-03-11T13:04:44.333Z,93868.00
2023-03-11T13:05:44.389Z,93864.00
2023-03-11T13:06:44.474Z,93868.00
2023-03-11T13:07:44.582Z,93852.00
2023-03-11T13:10:44.810Z,93848.00
2023-03-11T15:38:52.849Z,93975.00
2023-03-11T15:39:52.921Z,93975.00
2023-03-11T15:40:52.989Z,93983.00
2023-03-11T15:41:53.036Z,93979.00
2023-03-11T15:42:53.087Z,93981.00
2023-03-11T15:43:53.171Z,93977.00
2023-03-11T15:44:53.222Z,93979.00
2023-03-11T15:45:53.272Z,93987.00
2023-03-11T15:46:53.288Z,93985.00
2023-03-11T15:47:53.320Z,93985.00
2023-03-11T15:48:53.395Z,93993.00
2023-03-11T15:49:53.454Z,93989.00
2023-03-11T15:50:54.753Z,93993.00
2023-03-11T15:51:53.567Z,93993.00
2023-03-11T15:52:53.611Z,93995.00
2023-03-11T15:53:53.667Z,93989.00
2023-03-11T15:54:55.977Z,93997.00
2023-03-11T15:55:53.784Z,94003.00
2023-03-11T15:57:53.878Z,94005.00
2023-03-11T15:58:53.924Z,94006.00
2023-03-11T15:59:53.972Z,94008.00
2023-03-11T16:00:54.031Z,94008.00
2023-03-11T16:01:54.058Z,94016.00
2023-03-11T16:02:54.116Z,94016.00
2023-03-11T16:03:54.295Z,94024.00
2023-03-11T16:04:54.398Z,94020.00
2023-03-11T16:05:54.299Z,94020.00
2023-03-11T16:07:07.133Z,94024.00
2023-03-11T16:07:55.351Z,94026.00
2023-03-11T16:08:54.356Z,94030.00
2023-03-11T16:09:54.352Z,94036.00
2023-03-11T16:10:54.328Z,94036.00
2023-03-11T16:11:54.335Z,94036.00
2023-03-11T16:12:54.351Z,94038.00
2023-03-11T16:13:54.338Z,94038.00
2023-03-11T16:14:54.336Z,94038.00
2023-03-11T16:15:54.435Z,94034.00
2023-03-11T16:16:54.390Z,94042.00
2023-03-11T16:17:54.465Z,94044.00
2023-03-11T16:18:54.484Z,94044.00
2023-03-11T16:19:54.575Z,94044.00
2023-03-11T16:20:54.611Z,94052.00
2023-03-11T16:21:54.648Z,94052.00
2023-03-11T16:22:54.699Z,94050.00
2023-03-11T16:23:54.788Z,94055.00
2023-03-11T16:24:54.845Z,94057.00
2023-03-11T16:25:54.853Z,94063.00
2023-03-11T16:26:54.936Z,94061.00
2023-03-11T16:27:54.967Z,94061.00
2023-03-11T16:28:55.054Z,94061.00
2023-03-11T16:29:55.089Z,94059.00
2023-03-11T16:30:55.178Z,94073.00
2023-03-11T16:31:55.201Z,94065.00
2023-03-11T16:32:55.412Z,94071.00
2023-03-11T16:33:55.297Z,94069.00
2023-03-11T16:34:55.387Z,94071.00
2023-03-11T16:35:55.458Z,94071.00
2023-03-11T16:36:55.501Z,94073.00
2023-03-11T16:37:55.550Z,94073.00
2023-03-11T16:38:55.605Z,94077.00
2023-03-11T16:39:55.680Z,94073.00
2023-03-11T16:40:55.727Z,94073.00
2023-03-11T16:41:55.763Z,94077.00
2023-03-11T16:42:55.847Z,94075.00
2023-03-11T16:43:55.897Z,94077.00
2023-03-11T16:44:55.974Z,94081.00
2023-03-11T16:45:56.013Z,94081.00
2023-03-11T16:46:56.083Z,94081.00
2023-03-11T16:47:56.134Z,94081.00
2023-03-11T16:48:56.189Z,94079.00
2023-03-11T16:49:56.228Z,94075.00
2023-03-11T16:50:56.313Z,94067.00
2023-03-11T16:51:56.397Z,94071.00
2023-03-11T16:52:56.415Z,94073.00
2023-03-11T16:53:56.484Z,94073.00
2023-03-11T16:54:56.518Z,94067.00
2023-03-11T16:55:56.594Z,94075.00
2023-03-11T16:56:56.647Z,94077.00
2023-03-11T16:57:56.689Z,94081.00
2023-03-11T16:58:56.784Z,94085.00
2023-03-11T16:59:56.842Z,94083.00
2023-03-11T17:00:56.900Z,94081.00
2023-03-11T17:01:56.976Z,94087.00
2023-03-11T17:02:56.973Z,94092.00
2023-03-11T17:03:57.064Z,94092.00
2023-03-11T17:04:57.140Z,94097.00
2023-03-11T17:05:57.158Z,94099.00
2023-03-11T17:06:57.217Z,94099.00
2023-03-11T17:07:57.260Z,94097.00
2023-03-11T17:08:57.326Z,94097.00
2023-03-11T17:09:57.388Z,94097.00
2023-03-11T17:10:57.448Z,94097.00
2023-03-11T17:11:57.534Z,94099.00
2023-03-11T17:12:57.566Z,94100.00
2023-03-11T17:14:10.123Z,94100.00
2023-03-11T17:14:58.633Z,94102.00
2023-03-11T17:15:57.688Z,94106.00
2023-03-11T17:16:57.644Z,94108.00
2023-03-11T17:17:57.586Z,94110.00
2023-03-11T17:18:57.566Z,94116.00
2023-03-11T17:19:57.617Z,94118.00
2023-03-11T17:20:57.545Z,94122.00
2023-03-11T17:21:57.570Z,94126.00
2023-03-11T17:22:57.637Z,94130.00
2023-03-11T17:23:57.677Z,94130.00
2023-03-11T17:24:57.769Z,94132.00
2023-03-11T17:25:58.502Z,94132.00
2023-03-11T17:26:57.849Z,94132.00
2023-03-11T17:27:57.906Z,94132.00
2023-03-11T17:29:58.047Z,94130.00
2023-03-11T17:30:58.072Z,94136.00
2023-03-11T17:33:58.274Z,94139.00
2023-03-11T17:34:58.327Z,94147.00
2023-03-11T17:35:58.393Z,94147.00
2023-03-11T17:36:58.449Z,94149.00
2023-03-11T17:37:58.523Z,94151.00
2023-03-11T17:38:58.525Z,94155.00
2023-03-11T17:39:58.658Z,94157.00
2023-03-11T17:40:58.626Z,94159.00
2023-03-11T17:41:58.710Z,94169.00
2023-03-11T17:42:58.785Z,94173.00
2023-03-11T17:43:58.841Z,94177.00
2023-03-11T17:44:58.876Z,94179.00
2023-03-11T17:45:58.948Z,94183.00
2023-03-11T17:46:59.014Z,94188.00
2023-03-11T17:47:59.036Z,94186.00
2023-03-11T17:48:59.121Z,94188.00
2023-03-11T17:49:59.192Z,94192.00
2023-03-11T17:50:59.239Z,94190.00
2023-03-11T17:51:59.293Z,94198.00
2023-03-11T17:52:59.385Z,94202.00
2023-03-11T17:53:59.406Z,94204.00
2023-03-11T17:54:59.463Z,94208.00